Prachinburi, Thailand

5:57 PM ICT op 01 november 2014 (GMT +0700)
Bangkok International | Change Station
CLOSE
Current Station
Luchthaven
Location: Bangkok (Don Mueang),
Geometrische hoogte: 13 ft
Nabije weerstations

Hoogte 13 ft 13.92 °N, 100.61 °E | Updated 27 minutes ago

Mostly Cloudy
Merendeels bewolkt
88 °F
Voelt als 100 °F
N
7
Wind Variabel Wind van oost

Vandaag
Hoog -- | Laag -- °F
--% Kans op neerslag
Gisteren
Hoog -- | Laag -- °F
Precip. -- inches
6:09 AM 5:46 PM
Wassende maan, 65% visible
Druk 29.74 inches
Zicht 6.2 mijlen
Wolken Gering 2000 ft
Merendeels bewolkt 30000 ft
Warmteindex 100 °F
Dauwpunt 77 °F
Vochtigheid 70%
Neerslag 0.00 inches
Dikte sneeuw Niet beschikbaar.
UV 0 van de 12
Pollen Niet beschikbaar.
Luchtkwaliteit Niet beschikbaar.
Flu Activity Niet beschikbaar.
METAR VTBD 011030Z 09006KT 060V130 9999 FEW020 BKN300 31/25 Q1007 NOSIG

More Conditions Fewer Conditions

Druk 29.74 inches
Zicht 6.2 mijlen
Wolken Gering 2000 ft
Merendeels bewolkt 30000 ft
Warmteindex 100 °F
Dauwpunt 77 °F
Vochtigheid 70%
Neerslag 0.00 inches
Dikte sneeuw Niet beschikbaar.
UV 0 van de 12
Pollen Niet beschikbaar.
Luchtkwaliteit Niet beschikbaar.
Flu Activity Niet beschikbaar.
METAR VTBD 011030Z 09006KT 060V130 9999 FEW020 BKN300 31/25 Q1007 NOSIG

More Conditions Fewer Conditions

10-Day Weather Forecast

Almanac

Astronomie

Nov. 01, 2014 Opkomst Ondergang
Werkelijke tijd
Burgerlijke schemering
Nautische schemering
Astronomische schemering
Maan
Golflengte van het zichtbare licht
Daglengte
Tomorrow will be .
, % of the Moon is Illuminated

Extremen vandaag

Country Highs Country Lows

Community

WunderPhotos

Upload Photos

1,766,875 foto’s ge-upload!

WunderBlogs® & News

Nearby

Luchtkwaliteit

  Luchtkwaliteit LK-index Verontreinigende stof
Not available.

Dikte sneeuw

Station Depth Geometrische hoogte

Aardbevingen

Stad Distance Mag. Time & Date
Minimum magnitude displayed is 2.5.

Watertemperatuur langs de kust

Plaats Temperatuur

Nabije weerstations